sensor_id;sensor_type;location;lat;lon;timestamp;temperature;humidity
55331;DHT22;58851;42.984;20.336;2024-02-04T00:01:04;77.40;6476.80
55331;DHT22;58851;42.984;20.336;2024-02-04T00:03:33;77.50;6476.80
55331;DHT22;58851;42.984;20.336;2024-02-04T00:05:59;77.50;6476.80
55331;DHT22;58851;42.984;20.336;2024-02-04T00:08:25;77.40;6476.80
55331;DHT22;58851;42.984;20.336;2024-02-04T00:10:50;77.40;6476.80
55331;DHT22;58851;42.984;20.336;2024-02-04T00:13:16;77.50;6476.80
55331;DHT22;58851;42.984;20.336;2024-02-04T00:15:42;77.50;6476.80
55331;DHT22;58851;42.984;20.336;2024-02-04T00:18:08;77.40;6476.80
55331;DHT22;58851;42.984;20.336;2024-02-04T00:20:34;77.40;6476.80
55331;DHT22;58851;42.984;20.336;2024-02-04T00:23:00;77.40;6476.80
55331;DHT22;58851;42.984;20.336;2024-02-04T00:25:25;77.50;6476.80
55331;DHT22;58851;42.984;20.336;2024-02-04T00:27:51;77.50;6476.80
55331;DHT22;58851;42.984;20.336;2024-02-04T00:30:17;77.40;6476.80
55331;DHT22;58851;42.984;20.336;2024-02-04T00:32:43;77.40;6476.80
55331;DHT22;58851;42.984;20.336;2024-02-04T00:35:09;77.30;6476.80
55331;DHT22;58851;42.984;20.336;2024-02-04T00:37:34;77.30;6476.80
55331;DHT22;58851;42.984;20.336;2024-02-04T00:40:00;77.30;6476.80
55331;DHT22;58851;42.984;20.336;2024-02-04T00:42:26;77.20;6476.80
55331;DHT22;58851;42.984;20.336;2024-02-04T00:44:51;77.20;6476.80
55331;DHT22;58851;42.984;20.336;2024-02-04T00:47:19;77.20;6476.80
55331;DHT22;58851;42.984;20.336;2024-02-04T00:49:44;77.10;6476.80
55331;DHT22;58851;42.984;20.336;2024-02-04T00:52:10;77.10;6476.80
55331;DHT22;58851;42.984;20.336;2024-02-04T00:54:36;77.10;6476.80
55331;DHT22;58851;42.984;20.336;2024-02-04T00:57:02;77.00;6476.80
55331;DHT22;58851;42.984;20.336;2024-02-04T00:59:28;76.90;6476.80
55331;DHT22;58851;42.984;20.336;2024-02-04T01:01:54;77.00;6476.80
55331;DHT22;58851;42.984;20.336;2024-02-04T01:04:21;76.90;6476.80
55331;DHT22;58851;42.984;20.336;2024-02-04T01:06:48;76.80;6476.80
55331;DHT22;58851;42.984;20.336;2024-02-04T01:09:14;52.10;6476.80
55331;DHT22;58851;42.984;20.336;2024-02-04T01:11:40;52.10;6476.80
55331;DHT22;58851;42.984;20.336;2024-02-04T01:14:05;76.80;6476.80
55331;DHT22;58851;42.984;20.336;2024-02-04T01:16:31;52.10;6476.80
55331;DHT22;58851;42.984;20.336;2024-02-04T01:18:57;52.00;6476.80
55331;DHT22;58851;42.984;20.336;2024-02-04T01:21:23;52.00;6476.80
55331;DHT22;58851;42.984;20.336;2024-02-04T01:23:48;52.00;6476.80
55331;DHT22;58851;42.984;20.336;2024-02-04T01:26:14;52.00;6476.80
55331;DHT22;58851;42.984;20.336;2024-02-04T01:28:40;52.00;6476.80
55331;DHT22;58851;42.984;20.336;2024-02-04T01:31:06;51.90;6476.80
55331;DHT22;58851;42.984;20.336;2024-02-04T01:33:32;52.00;6476.80
55331;DHT22;58851;42.984;20.336;2024-02-04T01:35:58;51.90;6476.80
55331;DHT22;58851;42.984;20.336;2024-02-04T01:38:24;51.90;6476.80
55331;DHT22;58851;42.984;20.336;2024-02-04T01:40:49;51.90;6476.80
55331;DHT22;58851;42.984;20.336;2024-02-04T01:43:18;51.90;6476.80
55331;DHT22;58851;42.984;20.336;2024-02-04T01:45:44;51.90;6476.80
55331;DHT22;58851;42.984;20.336;2024-02-04T01:48:09;51.80;6476.80
55331;DHT22;58851;42.984;20.336;2024-02-04T01:50:35;51.80;6476.80
55331;DHT22;58851;42.984;20.336;2024-02-04T01:53:01;51.90;6476.80
55331;DHT22;58851;42.984;20.336;2024-02-04T01:55:27;51.80;6476.80
55331;DHT22;58851;42.984;20.336;2024-02-04T01:57:53;51.80;6476.80
55331;DHT22;58851;42.984;20.336;2024-02-04T02:00:19;51.80;6476.80
55331;DHT22;58851;42.984;20.336;2024-02-04T02:02:47;51.80;6476.80
55331;DHT22;58851;42.984;20.336;2024-02-04T02:05:14;51.70;6476.80
55331;DHT22;58851;42.984;20.336;2024-02-04T02:07:40;51.70;6476.80
55331;DHT22;58851;42.984;20.336;2024-02-04T02:10:07;51.70;6476.80
55331;DHT22;58851;42.984;20.336;2024-02-04T02:12:48;51.70;6476.80
55331;DHT22;58851;42.984;20.336;2024-02-04T02:15:24;51.70;6476.80
55331;DHT22;58851;42.984;20.336;2024-02-04T02:17:52;51.60;6476.80
55331;DHT22;58851;42.984;20.336;2024-02-04T02:20:27;51.60;6476.80
55331;DHT22;58851;42.984;20.336;2024-02-04T02:23:19;51.70;6476.80
55331;DHT22;58851;42.984;20.336;2024-02-04T02:25:41;51.60;6476.80
55331;DHT22;58851;42.984;20.336;2024-02-04T02:28:07;51.60;6476.80
55331;DHT22;58851;42.984;20.336;2024-02-04T02:30:33;51.60;6476.80
55331;DHT22;58851;42.984;20.336;2024-02-04T02:32:59;51.60;6476.80
55331;DHT22;58851;42.984;20.336;2024-02-04T02:35:25;51.50;6476.80
55331;DHT22;58851;42.984;20.336;2024-02-04T02:38:03;51.60;6476.80
55331;DHT22;58851;42.984;20.336;2024-02-04T02:40:49;51.50;6476.80
55331;DHT22;58851;42.984;20.336;2024-02-04T02:43:18;51.50;6476.80
55331;DHT22;58851;42.984;20.336;2024-02-04T02:45:44;51.50;6476.80
55331;DHT22;58851;42.984;20.336;2024-02-04T02:48:11;51.50;6476.80
55331;DHT22;58851;42.984;20.336;2024-02-04T02:50:37;51.40;6476.80
55331;DHT22;58851;42.984;20.336;2024-02-04T02:53:04;51.40;6476.80
55331;DHT22;58851;42.984;20.336;2024-02-04T02:55:30;51.30;6476.80
55331;DHT22;58851;42.984;20.336;2024-02-04T02:57:56;51.30;6476.80
55331;DHT22;58851;42.984;20.336;2024-02-04T03:00:22;51.30;6476.80
55331;DHT22;58851;42.984;20.336;2024-02-04T03:02:48;51.30;6476.80
55331;DHT22;58851;42.984;20.336;2024-02-04T03:05:16;51.30;6476.80
55331;DHT22;58851;42.984;20.336;2024-02-04T03:07:42;51.20;6476.80
55331;DHT22;58851;42.984;20.336;2024-02-04T03:10:08;51.20;6476.80
55331;DHT22;58851;42.984;20.336;2024-02-04T03:12:34;51.20;6476.80
55331;DHT22;58851;42.984;20.336;2024-02-04T03:15:00;51.20;6476.80
55331;DHT22;58851;42.984;20.336;2024-02-04T03:17:26;26.50;6451.20
55331;DHT22;58851;42.984;20.336;2024-02-04T03:19:52;26.50;6451.20
55331;DHT22;58851;42.984;20.336;2024-02-04T03:22:20;26.50;6451.20
55331;DHT22;58851;42.984;20.336;2024-02-04T03:24:47;26.50;6451.20
55331;DHT22;58851;42.984;20.336;2024-02-04T03:27:13;26.50;6451.20
55331;DHT22;58851;42.984;20.336;2024-02-04T03:29:39;26.50;6451.20
55331;DHT22;58851;42.984;20.336;2024-02-04T03:32:05;26.50;6451.20
55331;DHT22;58851;42.984;20.336;2024-02-04T03:34:31;26.50;6451.20
55331;DHT22;58851;42.984;20.336;2024-02-04T03:36:56;26.50;6451.20
55331;DHT22;58851;42.984;20.336;2024-02-04T03:39:22;51.20;6476.80
55331;DHT22;58851;42.984;20.336;2024-02-04T03:41:48;26.50;6451.20
55331;DHT22;58851;42.984;20.336;2024-02-04T03:44:14;26.50;6451.20
55331;DHT22;58851;42.984;20.336;2024-02-04T03:46:39;26.50;6451.20
55331;DHT22;58851;42.984;20.336;2024-02-04T03:49:09;51.20;6476.80
55331;DHT22;58851;42.984;20.336;2024-02-04T03:51:34;26.50;6451.20
55331;DHT22;58851;42.984;20.336;2024-02-04T03:54:00;51.20;6476.80
55331;DHT22;58851;42.984;20.336;2024-02-04T03:56:26;51.20;6476.80
55331;DHT22;58851;42.984;20.336;2024-02-04T03:58:52;51.30;6476.80
55331;DHT22;58851;42.984;20.336;2024-02-04T04:01:17;51.30;6476.80
55331;DHT22;58851;42.984;20.336;2024-02-04T04:03:43;51.40;6476.80
55331;DHT22;58851;42.984;20.336;2024-02-04T04:06:10;51.40;6476.80
55331;DHT22;58851;42.984;20.336;2024-02-04T04:08:36;51.50;6476.80
55331;DHT22;58851;42.984;20.336;2024-02-04T04:11:02;51.50;6476.80
55331;DHT22;58851;42.984;20.336;2024-02-04T04:13:29;51.60;6476.80
55331;DHT22;58851;42.984;20.336;2024-02-04T04:15:54;51.60;6476.80
55331;DHT22;58851;42.984;20.336;2024-02-04T04:18:20;51.60;6476.80
55331;DHT22;58851;42.984;20.336;2024-02-04T04:20:46;51.60;6476.80
55331;DHT22;58851;42.984;20.336;2024-02-04T04:23:14;51.70;6476.80
55331;DHT22;58851;42.984;20.336;2024-02-04T04:25:40;51.60;6476.80
55331;DHT22;58851;42.984;20.336;2024-02-04T04:28:06;51.70;6476.80
55331;DHT22;58851;42.984;20.336;2024-02-04T04:30:32;51.70;6476.80
55331;DHT22;58851;42.984;20.336;2024-02-04T04:32:57;51.70;6476.80
55331;DHT22;58851;42.984;20.336;2024-02-04T04:35:24;51.70;6476.80
55331;DHT22;58851;42.984;20.336;2024-02-04T04:37:50;51.70;6476.80
55331;DHT22;58851;42.984;20.336;2024-02-04T04:40:16;51.70;6476.80
55331;DHT22;58851;42.984;20.336;2024-02-04T04:42:42;51.70;6476.80
55331;DHT22;58851;42.984;20.336;2024-02-04T04:45:08;51.70;6476.80
55331;DHT22;58851;42.984;20.336;2024-02-04T04:47:34;51.70;6476.80
55331;DHT22;58851;42.984;20.336;2024-02-04T04:50:00;51.70;6476.80
55331;DHT22;58851;42.984;20.336;2024-02-04T04:52:26;51.70;6476.80
55331;DHT22;58851;42.984;20.336;2024-02-04T04:54:51;51.60;6476.80
55331;DHT22;58851;42.984;20.336;2024-02-04T04:57:17;51.70;6476.80
55331;DHT22;58851;42.984;20.336;2024-02-04T04:59:43;51.70;6476.80
55331;DHT22;58851;42.984;20.336;2024-02-04T05:02:09;51.70;6476.80
55331;DHT22;58851;42.984;20.336;2024-02-04T05:04:36;51.70;6476.80
55331;DHT22;58851;42.984;20.336;2024-02-04T05:07:02;51.60;6476.80
55331;DHT22;58851;42.984;20.336;2024-02-04T05:09:28;51.60;6476.80
55331;DHT22;58851;42.984;20.336;2024-02-04T05:11:54;51.70;6476.80
55331;DHT22;58851;42.984;20.336;2024-02-04T05:14:19;51.60;6476.80
55331;DHT22;58851;42.984;20.336;2024-02-04T05:16:45;51.50;6476.80
55331;DHT22;58851;42.984;20.336;2024-02-04T05:19:11;51.50;6476.80
55331;DHT22;58851;42.984;20.336;2024-02-04T05:21:39;51.50;6476.80
55331;DHT22;58851;42.984;20.336;2024-02-04T05:24:05;51.40;6476.80
55331;DHT22;58851;42.984;20.336;2024-02-04T05:26:31;51.40;6476.80
55331;DHT22;58851;42.984;20.336;2024-02-04T05:28:57;51.30;6476.80
55331;DHT22;58851;42.984;20.336;2024-02-04T05:31:23;51.30;6476.80
55331;DHT22;58851;42.984;20.336;2024-02-04T05:33:51;51.40;6476.80
55331;DHT22;58851;42.984;20.336;2024-02-04T05:36:17;51.40;6476.80
55331;DHT22;58851;42.984;20.336;2024-02-04T05:38:45;51.40;6476.80
55331;DHT22;58851;42.984;20.336;2024-02-04T05:41:11;51.30;6476.80
55331;DHT22;58851;42.984;20.336;2024-02-04T05:43:36;51.30;6476.80
55331;DHT22;58851;42.984;20.336;2024-02-04T05:46:02;51.30;6476.80
55331;DHT22;58851;42.984;20.336;2024-02-04T05:48:28;51.30;6476.80
55331;DHT22;58851;42.984;20.336;2024-02-04T05:50:54;51.20;6476.80
55331;DHT22;58851;42.984;20.336;2024-02-04T05:53:20;51.20;6476.80
55331;DHT22;58851;42.984;20.336;2024-02-04T05:55:46;51.20;6476.80
55331;DHT22;58851;42.984;20.336;2024-02-04T05:58:12;26.50;6451.20
55331;DHT22;58851;42.984;20.336;2024-02-04T06:00:40;26.50;6451.20
55331;DHT22;58851;42.984;20.336;2024-02-04T06:03:06;26.50;6451.20
55331;DHT22;58851;42.984;20.336;2024-02-04T06:05:32;26.50;6451.20
55331;DHT22;58851;42.984;20.336;2024-02-04T06:07:57;26.50;6451.20
55331;DHT22;58851;42.984;20.336;2024-02-04T06:10:23;26.50;6451.20
55331;DHT22;58851;42.984;20.336;2024-02-04T06:12:49;26.40;6451.20
55331;DHT22;58851;42.984;20.336;2024-02-04T06:15:16;26.40;6451.20
55331;DHT22;58851;42.984;20.336;2024-02-04T06:17:43;26.40;6451.20
55331;DHT22;58851;42.984;20.336;2024-02-04T06:20:09;26.40;6451.20
55331;DHT22;58851;42.984;20.336;2024-02-04T06:22:36;26.40;6451.20
55331;DHT22;58851;42.984;20.336;2024-02-04T06:25:03;26.30;6451.20
55331;DHT22;58851;42.984;20.336;2024-02-04T06:27:30;26.40;6451.20
55331;DHT22;58851;42.984;20.336;2024-02-04T06:29:56;26.40;6451.20
55331;DHT22;58851;42.984;20.336;2024-02-04T06:32:23;26.40;6451.20
55331;DHT22;58851;42.984;20.336;2024-02-04T06:34:51;26.50;6451.20
55331;DHT22;58851;42.984;20.336;2024-02-04T06:37:17;51.20;6476.80
55331;DHT22;58851;42.984;20.336;2024-02-04T06:39:43;51.20;6476.80
55331;DHT22;58851;42.984;20.336;2024-02-04T06:42:09;51.20;6476.80
55331;DHT22;58851;42.984;20.336;2024-02-04T06:44:35;51.30;6476.80
55331;DHT22;58851;42.984;20.336;2024-02-04T06:47:01;51.40;6476.80
55331;DHT22;58851;42.984;20.336;2024-02-04T06:49:27;51.40;6476.80
55331;DHT22;58851;42.984;20.336;2024-02-04T06:51:53;51.50;6476.80
55331;DHT22;58851;42.984;20.336;2024-02-04T06:54:23;51.50;6476.80
55331;DHT22;58851;42.984;20.336;2024-02-04T06:56:51;51.70;6476.80
55331;DHT22;58851;42.984;20.336;2024-02-04T06:59:18;51.80;6476.80
55331;DHT22;58851;42.984;20.336;2024-02-04T07:01:44;51.70;6476.80
55331;DHT22;58851;42.984;20.336;2024-02-04T07:04:11;51.80;6476.80
55331;DHT22;58851;42.984;20.336;2024-02-04T07:06:37;51.80;6476.80
55331;DHT22;58851;42.984;20.336;2024-02-04T07:09:03;52.00;6476.80
55331;DHT22;58851;42.984;20.336;2024-02-04T07:11:29;52.00;6476.80
55331;DHT22;58851;42.984;20.336;2024-02-04T07:13:55;76.80;6476.80
55331;DHT22;58851;42.984;20.336;2024-02-04T07:16:26;76.80;6476.80
55331;DHT22;58851;42.984;20.336;2024-02-04T07:18:53;76.90;6476.80
55331;DHT22;58851;42.984;20.336;2024-02-04T07:21:20;77.00;6476.80
55331;DHT22;58851;42.984;20.336;2024-02-04T07:23:45;76.90;6476.80
55331;DHT22;58851;42.984;20.336;2024-02-04T07:26:12;77.00;6476.80
55331;DHT22;58851;42.984;20.336;2024-02-04T07:28:38;77.00;6476.80
55331;DHT22;58851;42.984;20.336;2024-02-04T07:31:04;76.90;6476.80
55331;DHT22;58851;42.984;20.336;2024-02-04T07:33:30;76.90;6476.80
55331;DHT22;58851;42.984;20.336;2024-02-04T07:35:56;77.00;6476.80
55331;DHT22;58851;42.984;20.336;2024-02-04T07:38:22;77.10;6476.80
55331;DHT22;58851;42.984;20.336;2024-02-04T07:40:47;77.30;6476.80
55331;DHT22;58851;42.984;20.336;2024-02-04T07:43:13;77.40;6476.80
55331;DHT22;58851;42.984;20.336;2024-02-04T07:45:39;77.50;6476.80
55331;DHT22;58851;42.984;20.336;2024-02-04T07:48:05;77.60;6476.80
55331;DHT22;58851;42.984;20.336;2024-02-04T07:50:32;77.70;6476.80
55331;DHT22;58851;42.984;20.336;2024-02-04T07:52:58;77.70;6476.80
55331;DHT22;58851;42.984;20.336;2024-02-04T07:55:24;102.50;6476.80
55331;DHT22;58851;42.984;20.336;2024-02-04T07:57:50;102.50;6476.80
55331;DHT22;58851;42.984;20.336;2024-02-04T08:00:16;102.50;6476.80
55331;DHT22;58851;42.984;20.336;2024-02-04T08:02:44;102.70;6476.80
55331;DHT22;58851;42.984;20.336;2024-02-04T08:05:11;102.90;6476.80
55331;DHT22;58851;42.984;20.336;2024-02-04T08:07:37;103.00;6476.80
55331;DHT22;58851;42.984;20.336;2024-02-04T08:10:03;103.10;6476.80
55331;DHT22;58851;42.984;20.336;2024-02-04T08:12:28;103.30;6476.80
55331;DHT22;58851;42.984;20.336;2024-02-04T08:14:54;103.30;6476.80
55331;DHT22;58851;42.984;20.336;2024-02-04T08:17:20;128.00;6502.40
55331;DHT22;58851;42.984;20.336;2024-02-04T08:19:46;128.20;6502.40
55331;DHT22;58851;42.984;20.336;2024-02-04T08:22:12;128.40;6502.40
55331;DHT22;58851;42.984;20.336;2024-02-04T08:24:37;128.50;6502.40
55331;DHT22;58851;42.984;20.336;2024-02-04T08:27:03;128.80;6502.40
55331;DHT22;58851;42.984;20.336;2024-02-04T08:29:29;128.60;6502.40
55331;DHT22;58851;42.984;20.336;2024-02-04T08:31:55;128.60;6502.40
55331;DHT22;58851;42.984;20.336;2024-02-04T08:34:21;128.50;6502.40
55331;DHT22;58851;42.984;20.336;2024-02-04T08:36:49;128.70;6502.40
55331;DHT22;58851;42.984;20.336;2024-02-04T08:39:15;128.80;6502.40
55331;DHT22;58851;42.984;20.336;2024-02-04T08:41:41;128.80;6502.40
55331;DHT22;58851;42.984;20.336;2024-02-04T08:44:07;128.90;6502.40
55331;DHT22;58851;42.984;20.336;2024-02-04T08:46:33;153.70;6502.40
55331;DHT22;58851;42.984;20.336;2024-02-04T08:48:59;153.90;6502.40
55331;DHT22;58851;42.984;20.336;2024-02-04T08:51:25;154.10;6502.40
55331;DHT22;58851;42.984;20.336;2024-02-04T08:53:50;154.30;6502.40
55331;DHT22;58851;42.984;20.336;2024-02-04T08:56:16;154.40;6502.40
55331;DHT22;58851;42.984;20.336;2024-02-04T08:58:43;154.40;6502.40
55331;DHT22;58851;42.984;20.336;2024-02-04T09:01:09;179.30;6502.40
55331;DHT22;58851;42.984;20.336;2024-02-04T09:03:35;179.30;6502.40
55331;DHT22;58851;42.984;20.336;2024-02-04T09:06:01;179.40;6502.40
55331;DHT22;58851;42.984;20.336;2024-02-04T09:08:26;179.60;6502.40
55331;DHT22;58851;42.984;20.336;2024-02-04T09:10:52;179.80;6502.40
55331;DHT22;58851;42.984;20.336;2024-02-04T09:13:18;179.90;6502.40
55331;DHT22;58851;42.984;20.336;2024-02-04T09:15:44;179.90;6502.40
55331;DHT22;58851;42.984;20.336;2024-02-04T09:18:09;179.90;6502.40
55331;DHT22;58851;42.984;20.336;2024-02-04T09:20:35;180.10;6502.40
55331;DHT22;58851;42.984;20.336;2024-02-04T09:23:01;204.80;6502.40
55331;DHT22;58851;42.984;20.336;2024-02-04T09:25:28;204.90;6502.40
55331;DHT22;58851;42.984;20.336;2024-02-04T09:27:54;204.80;6502.40
55331;DHT22;58851;42.984;20.336;2024-02-04T09:30:20;205.10;6502.40
55331;DHT22;58851;42.984;20.336;2024-02-04T09:32:46;205.30;6502.40
55331;DHT22;58851;42.984;20.336;2024-02-04T09:35:12;205.70;6502.40
55331;DHT22;58851;42.984;20.336;2024-02-04T09:37:38;230.40;6502.40
55331;DHT22;58851;42.984;20.336;2024-02-04T09:40:04;230.60;6502.40
55331;DHT22;58851;42.984;20.336;2024-02-04T09:42:31;230.80;6502.40
55331;DHT22;58851;42.984;20.336;2024-02-04T09:44:57;230.90;6502.40
55331;DHT22;58851;42.984;20.336;2024-02-04T09:47:23;231.20;6502.40
55331;DHT22;58851;42.984;20.336;2024-02-04T09:49:49;231.30;6502.40
55331;DHT22;58851;42.984;20.336;2024-02-04T09:52:18;231.30;6502.40
55331;DHT22;58851;42.984;20.336;2024-02-04T09:54:50;256.10;6502.40
55331;DHT22;58851;42.984;20.336;2024-02-04T09:57:16;256.40;6502.40
55331;DHT22;58851;42.984;20.336;2024-02-04T09:59:46;256.60;6502.40
55331;DHT22;58851;42.984;20.336;2024-02-04T10:02:13;256.70;6502.40
55331;DHT22;58851;42.984;20.336;2024-02-04T10:04:41;256.90;6502.40
55331;DHT22;58851;42.984;20.336;2024-02-04T10:07:08;281.60;6528.00
55331;DHT22;58851;42.984;20.336;2024-02-04T10:09:34;281.70;6528.00
55331;DHT22;58851;42.984;20.336;2024-02-04T10:12:01;281.80;6528.00
55331;DHT22;58851;42.984;20.336;2024-02-04T10:14:27;281.90;6528.00
55331;DHT22;58851;42.984;20.336;2024-02-04T10:16:53;282.00;6528.00
55331;DHT22;58851;42.984;20.336;2024-02-04T10:19:20;282.10;6528.00
55331;DHT22;58851;42.984;20.336;2024-02-04T10:21:45;282.30;6528.00
55331;DHT22;58851;42.984;20.336;2024-02-04T10:24:12;307.20;128.00
55331;DHT22;58851;42.984;20.336;2024-02-04T10:26:38;307.30;128.00
55331;DHT22;58851;42.984;20.336;2024-02-04T10:29:06;307.50;128.00
55331;DHT22;58851;42.984;20.336;2024-02-04T10:31:33;307.60;128.00
55331;DHT22;58851;42.984;20.336;2024-02-04T10:34:00;307.70;128.00
55331;DHT22;58851;42.984;20.336;2024-02-04T10:36:26;308.00;128.00
55331;DHT22;58851;42.984;20.336;2024-02-04T10:38:53;332.90;128.00
55331;DHT22;58851;42.984;20.336;2024-02-04T10:41:20;333.10;128.00
55331;DHT22;58851;42.984;20.336;2024-02-04T10:43:47;333.20;128.00
55331;DHT22;58851;42.984;20.336;2024-02-04T10:46:19;333.30;128.00
55331;DHT22;58851;42.984;20.336;2024-02-04T10:48:52;333.30;128.00
55331;DHT22;58851;42.984;20.336;2024-02-04T10:51:26;333.30;128.00
55331;DHT22;58851;42.984;20.336;2024-02-04T10:53:54;333.40;128.00
55331;DHT22;58851;42.984;20.336;2024-02-04T10:56:37;333.60;128.00
55331;DHT22;58851;42.984;20.336;2024-02-04T10:59:07;333.70;128.00
55331;DHT22;58851;42.984;20.336;2024-02-04T11:01:33;358.40;128.00
55331;DHT22;58851;42.984;20.336;2024-02-04T11:04:00;358.60;128.00
55331;DHT22;58851;42.984;20.336;2024-02-04T11:06:28;358.60;128.00
55331;DHT22;58851;42.984;20.336;2024-02-04T11:08:56;358.80;128.00
55331;DHT22;58851;42.984;20.336;2024-02-04T11:11:25;358.80;128.00
55331;DHT22;58851;42.984;20.336;2024-02-04T11:13:56;358.80;128.00
55331;DHT22;58851;42.984;20.336;2024-02-04T11:25:14;384.00;128.00
55331;DHT22;58851;42.984;20.336;2024-02-04T11:27:44;384.00;128.00
55331;DHT22;58851;42.984;20.336;2024-02-04T11:30:11;384.10;128.00
55331;DHT22;58851;42.984;20.336;2024-02-04T11:32:37;384.00;128.00
55331;DHT22;58851;42.984;20.336;2024-02-04T11:35:03;384.20;128.00
55331;DHT22;58851;42.984;20.336;2024-02-04T11:37:33;384.50;128.00
55331;DHT22;58851;42.984;20.336;2024-02-04T11:39:59;384.50;128.00
55331;DHT22;58851;42.984;20.336;2024-02-04T11:42:31;384.30;128.00
55331;DHT22;58851;42.984;20.336;2024-02-04T11:45:11;384.40;128.00
55331;DHT22;58851;42.984;20.336;2024-02-04T11:47:39;384.40;128.00
55331;DHT22;58851;42.984;20.336;2024-02-04T11:50:06;384.30;128.00
55331;DHT22;58851;42.984;20.336;2024-02-04T11:52:33;384.60;128.00
55331;DHT22;58851;42.984;20.336;2024-02-04T11:54:59;384.50;128.00
55331;DHT22;58851;42.984;20.336;2024-02-04T11:57:26;384.30;128.00
55331;DHT22;58851;42.984;20.336;2024-02-04T11:59:53;384.30;128.00
55331;DHT22;58851;42.984;20.336;2024-02-04T12:02:22;384.10;128.00
55331;DHT22;58851;42.984;20.336;2024-02-04T12:04:49;384.20;128.00
55331;DHT22;58851;42.984;20.336;2024-02-04T12:07:16;384.20;128.00
55331;DHT22;58851;42.984;20.336;2024-02-04T12:09:43;384.20;128.00
55331;DHT22;58851;42.984;20.336;2024-02-04T12:12:10;384.30;128.00
55331;DHT22;58851;42.984;20.336;2024-02-04T12:14:39;384.30;128.00
55331;DHT22;58851;42.984;20.336;2024-02-04T12:17:10;384.10;128.00
55331;DHT22;58851;42.984;20.336;2024-02-04T12:19:37;384.20;128.00
55331;DHT22;58851;42.984;20.336;2024-02-04T12:22:05;384.30;128.00
55331;DHT22;58851;42.984;20.336;2024-02-04T12:24:35;384.20;128.00
55331;DHT22;58851;42.984;20.336;2024-02-04T12:27:06;384.00;128.00
55331;DHT22;58851;42.984;20.336;2024-02-04T12:29:33;384.10;128.00
55331;DHT22;58851;42.984;20.336;2024-02-04T12:32:02;384.40;128.00
55331;DHT22;58851;42.984;20.336;2024-02-04T12:34:31;384.50;128.00
55331;DHT22;58851;42.984;20.336;2024-02-04T12:37:01;384.70;128.00
55331;DHT22;58851;42.984;20.336;2024-02-04T12:39:28;384.90;128.00
55331;DHT22;58851;42.984;20.336;2024-02-04T12:41:54;384.90;128.00
55331;DHT22;58851;42.984;20.336;2024-02-04T12:44:21;409.70;128.00
55331;DHT22;58851;42.984;20.336;2024-02-04T12:46:53;409.80;128.00
55331;DHT22;58851;42.984;20.336;2024-02-04T12:49:20;409.90;128.00
55331;DHT22;58851;42.984;20.336;2024-02-04T12:51:49;410.30;128.00
55331;DHT22;58851;42.984;20.336;2024-02-04T12:54:18;410.20;128.00
55331;DHT22;58851;42.984;20.336;2024-02-04T12:56:54;410.20;128.00
55331;DHT22;58851;42.984;20.336;2024-02-04T12:59:33;410.30;128.00
55331;DHT22;58851;42.984;20.336;2024-02-04T13:02:04;410.20;128.00
55331;DHT22;58851;42.984;20.336;2024-02-04T13:04:43;410.20;128.00
55331;DHT22;58851;42.984;20.336;2024-02-04T13:07:14;410.50;128.00
55331;DHT22;58851;42.984;20.336;2024-02-04T13:09:45;410.30;128.00
55331;DHT22;58851;42.984;20.336;2024-02-04T13:12:11;435.20;128.00
55331;DHT22;58851;42.984;20.336;2024-02-04T13:14:41;435.20;128.00
55331;DHT22;58851;42.984;20.336;2024-02-04T13:17:07;435.30;128.00
55331;DHT22;58851;42.984;20.336;2024-02-04T13:19:37;435.50;128.00
55331;DHT22;58851;42.984;20.336;2024-02-04T13:22:04;435.70;128.00
55331;DHT22;58851;42.984;20.336;2024-02-04T13:24:32;435.80;128.00
55331;DHT22;58851;42.984;20.336;2024-02-04T13:26:58;435.70;128.00
55331;DHT22;58851;42.984;20.336;2024-02-04T13:29:26;435.90;128.00
55331;DHT22;58851;42.984;20.336;2024-02-04T13:31:52;435.90;128.00
55331;DHT22;58851;42.984;20.336;2024-02-04T13:34:18;435.90;128.00
55331;DHT22;58851;42.984;20.336;2024-02-04T13:36:45;435.70;128.00
55331;DHT22;58851;42.984;20.336;2024-02-04T13:39:12;435.50;128.00
55331;DHT22;58851;42.984;20.336;2024-02-04T13:41:44;435.30;128.00
55331;DHT22;58851;42.984;20.336;2024-02-04T13:44:10;435.20;128.00
55331;DHT22;58851;42.984;20.336;2024-02-04T13:46:36;410.40;128.00
55331;DHT22;58851;42.984;20.336;2024-02-04T13:49:02;410.40;128.00
55331;DHT22;58851;42.984;20.336;2024-02-04T13:51:29;410.40;128.00
55331;DHT22;58851;42.984;20.336;2024-02-04T13:53:55;410.40;128.00
55331;DHT22;58851;42.984;20.336;2024-02-04T13:56:21;410.10;128.00
55331;DHT22;58851;42.984;20.336;2024-02-04T13:58:48;409.90;128.00
55331;DHT22;58851;42.984;20.336;2024-02-04T14:01:14;409.80;128.00
55331;DHT22;58851;42.984;20.336;2024-02-04T14:03:41;409.80;128.00
55331;DHT22;58851;42.984;20.336;2024-02-04T14:06:06;409.60;128.00
55331;DHT22;58851;42.984;20.336;2024-02-04T14:08:33;409.60;128.00
55331;DHT22;58851;42.984;20.336;2024-02-04T14:11:01;409.60;128.00
55331;DHT22;58851;42.984;20.336;2024-02-04T14:13:27;409.60;128.00
55331;DHT22;58851;42.984;20.336;2024-02-04T14:15:54;409.70;128.00
55331;DHT22;58851;42.984;20.336;2024-02-04T14:18:20;384.90;128.00
55331;DHT22;58851;42.984;20.336;2024-02-04T14:20:46;409.60;128.00
55331;DHT22;58851;42.984;20.336;2024-02-04T14:23:12;384.90;128.00
55331;DHT22;58851;42.984;20.336;2024-02-04T14:25:39;384.90;128.00
55331;DHT22;58851;42.984;20.336;2024-02-04T14:28:05;384.90;128.00
55331;DHT22;58851;42.984;20.336;2024-02-04T14:30:31;384.70;128.00
55331;DHT22;58851;42.984;20.336;2024-02-04T14:32:57;384.60;128.00
55331;DHT22;58851;42.984;20.336;2024-02-04T14:35:23;384.60;128.00
55331;DHT22;58851;42.984;20.336;2024-02-04T14:37:49;384.50;128.00
55331;DHT22;58851;42.984;20.336;2024-02-04T14:40:15;384.50;128.00
55331;DHT22;58851;42.984;20.336;2024-02-04T14:42:42;384.40;128.00
55331;DHT22;58851;42.984;20.336;2024-02-04T14:45:09;384.40;128.00
55331;DHT22;58851;42.984;20.336;2024-02-04T14:47:38;384.30;128.00
55331;DHT22;58851;42.984;20.336;2024-02-04T14:50:04;384.30;128.00
55331;DHT22;58851;42.984;20.336;2024-02-04T14:52:30;384.20;128.00